Tiverton, RI (02878)

3:38 AM EST on December 04, 2016 (GMT -0500)
Village at Mount Hope Bay | | Change Station

Elev 95 ft 41.65 °N, 71.20 °W | Updated 4 minutes ago

Clear
Clear
34.8 °F
Feels Like 27 °F
N
10.0
Wind Variable Wind from WNW
Gusts 19.0 mph

Today
High -- | Low -- °F
--% Chance of Precip.
Yesterday
High -- | Low -- °F
Precip. -- in
Pressure 30.13 in
Visibility 10.0 miles
Clouds Clear
Windchill 27 °F
Dew Point 26 °F
Humidity 70%
Rainfall 0.00 in
Snow Depth Not available.
6:55 AM 4:14 PM
Waxing Crescent, 21% visible
METAR KUUU 040753Z AUTO 31010KT 10SM CLR 01/M04 A3013 RMK AO2 SLP202 T00111044
Pressure 30.13 in
Visibility 10.0 miles
Clouds Clear
Windchill 27 °F
Dew Point 26 °F
Humidity 70%
Rainfall 0.00 in
Snow Depth Not available.
6:55 AM 4:14 PM
Waxing Crescent, 21% visible
METAR KUUU 040753Z AUTO 31010KT 10SM CLR 01/M04 A3013 RMK AO2 SLP202 T00111044

10-Day Weather Forecast

Almanac

Astronomy

Dec. 04, 2016 Rise Set
Actual Time
Civil Twilight
Nautical Twilight
Astronomical Twilight
Moon
Length of Visible Light
Length of Day
Tomorrow will be .
, % of the Moon is Illuminated

Today's Extremes

State Highs State Lows

Community

WunderPhotos

Upload Photos

1,955,587 photos uploaded!

WunderBlog® & News

Nearby

Air Quality

  Air Quality AQ Index Pollutant
Not available.

Snow Depth

Station Depth Elevation

Earthquake Activity

City Distance Mag. Time & Date
Minimum magnitude displayed is 2.5.

Coastal Water Temperatures

Place Temperature

Stations

Nearby Weather Stations

Station Location Temp. Windchill Dew Point Humidity Wind Precip. Elev Updated Type
                   

Watches & Warnings

There are currently no watches in effect.